Time;durP1;ratioP1;P1;durP2;ratioP2;P2;SDS_P1;SDS_P2;PMS_P1;PMS_P2;Temp;Humidity;BMP_temperature;BMP_pressure;BME280_temperature;BME280_humidity;BME280_pressure;Samples;Min_cycle;Max_cycle;Signal;HPM_P1;HPM_P2
2023/09/18 04:06:41;;;;;;;;;25.00;24.67;;;;;;;;6295480;39;10000663;-55
2023/09/18 05:00:12;;;;;;;;;28.67;26.67;;;;;;;;6494661;39;9072;-54
2023/09/18 05:06:21;;;;;;;;;26.67;25.33;;;;;;;;6491201;39;8945;-54
2023/09/18 05:12:24;;;;;;;;;27.33;25.33;;;;;;;;6491723;46;8990;-54
2023/09/18 05:18:27;;;;;;;;;27.00;25.67;;;;;;;;6490500;39;9070;-54
2023/09/18 05:24:29;;;;;;;;;31.67;28.00;;;;;;;;6491670;39;8890;-55
2023/09/18 05:30:38;;;;;;;;;37.67;31.67;;;;;;;;6491809;31;8902;-54
2023/09/18 05:36:41;;;;;;;;;30.00;29.00;;;;;;;;6490799;36;8890;-54
2023/09/18 05:42:44;;;;;;;;;24.00;22.33;;;;;;;;6492076;39;8809;-56
2023/09/18 05:48:47;;;;;;;;;25.00;25.00;;;;;;;;6491557;31;8867;-54
2023/09/18 05:54:49;;;;;;;;;30.33;29.33;;;;;;;;6490316;47;8921;-55
2023/09/18 06:00:53;;;;;;;;;25.00;23.33;;;;;;;;6489205;47;8915;-57
2023/09/18 06:06:56;;;;;;;;;28.00;25.67;;;;;;;;6489096;47;8963;-58
2023/09/18 06:13:03;;;;;;;;;26.00;24.67;;;;;;;;6489018;39;8923;-55
2023/09/18 06:19:07;;;;;;;;;24.33;22.67;;;;;;;;6488066;31;9527;-57
2023/09/18 06:25:10;;;;;;;;;26.33;24.33;;;;;;;;6485339;39;8978;-58
2023/09/18 06:31:12;;;;;;;;;26.67;24.67;;;;;;;;6484894;46;8881;-57
2023/09/18 06:37:15;;;;;;;;;22.33;21.00;;;;;;;;6485970;46;8915;-56
2023/09/18 06:43:18;;;;;;;;;21.33;21.33;;;;;;;;6488316;31;8844;-57
2023/09/18 06:49:20;;;;;;;;;23.00;20.00;;;;;;;;6486794;46;8922;-57
2023/09/18 06:55:23;;;;;;;;;24.33;21.00;;;;;;;;6485914;39;8955;-57
2023/09/18 07:01:27;;;;;;;;;20.33;19.67;;;;;;;;6488066;39;8945;-57
2023/09/18 07:07:30;;;;;;;;;18.33;18.33;;;;;;;;6485486;39;8943;-58
2023/09/18 07:13:32;;;;;;;;;23.00;20.67;;;;;;;;6488024;39;9082;-58
2023/09/18 07:19:36;;;;;;;;;17.67;17.33;;;;;;;;6487353;39;8888;-56
2023/09/18 07:25:39;;;;;;;;;18.33;18.33;;;;;;;;6485458;46;9023;-60
2023/09/18 07:31:42;;;;;;;;;15.33;15.33;;;;;;;;6487803;46;8861;-57
2023/09/18 07:37:46;;;;;;;;;17.00;16.50;;;;;;;;6485503;39;8856;-57
2023/09/18 07:43:49;;;;;;;;;13.00;10.50;;;;;;;;6487774;39;8956;-56
2023/09/18 07:49:57;;;;;;;;;13.25;13.25;;;;;;;;6484906;39;8875;-59
2023/09/18 07:55:59;;;;;;;;;13.50;13.50;;;;;;;;6486343;46;8920;-56
2023/09/18 08:02:09;;;;;;;;;14.75;14.00;;;;;;;;6484631;46;8998;-60
2023/09/18 08:08:13;;;;;;;;;14.75;14.00;;;;;;;;6486438;39;8868;-56
2023/09/18 08:14:17;;;;;;;;;14.25;14.25;;;;;;;;6485799;31;8942;-58
2023/09/18 08:20:23;;;;;;;;;16.25;16.00;;;;;;;;6486296;39;8829;-56
2023/09/18 08:26:28;;;;;;;;;14.50;14.50;;;;;;;;6485341;39;8921;-56
2023/09/18 08:32:33;;;;;;;;;19.50;18.00;;;;;;;;6486321;39;9559;-58
2023/09/18 08:38:36;;;;;;;;;16.25;15.50;;;;;;;;6485804;31;8883;-57
2023/09/18 08:44:41;;;;;;;;;14.50;13.00;;;;;;;;6487483;31;8911;-57
2023/09/18 08:50:48;;;;;;;;;12.75;12.75;;;;;;;;6486226;39;9585;-59
2023/09/18 08:56:51;;;;;;;;;13.50;13.50;;;;;;;;6486395;39;8904;-58
2023/09/18 09:02:54;;;;;;;;;19.50;17.00;;;;;;;;6485680;46;8941;-57
2023/09/18 09:08:59;;;;;;;;;12.00;12.00;;;;;;;;6486624;39;9535;-56
2023/09/18 09:15:03;;;;;;;;;14.25;13.50;;;;;;;;6484509;31;8871;-56
2023/09/18 09:21:08;;;;;;;;;14.33;14.00;;;;;;;;6485809;39;8876;-57
2023/09/18 09:27:10;;;;;;;;;18.00;17.00;;;;;;;;6483960;39;8808;-58
2023/09/18 09:33:12;;;;;;;;;17.50;16.50;;;;;;;;6484494;39;8908;-57
2023/09/18 09:39:15;;;;;;;;;16.75;12.00;;;;;;;;6484088;47;8927;-58
2023/09/18 09:45:19;;;;;;;;;17.75;17.75;;;;;;;;6484042;31;8983;-59
2023/09/18 09:51:21;;;;;;;;;15.00;15.00;;;;;;;;6485393;47;8926;-57
2023/09/18 09:57:25;;;;;;;;;18.00;18.00;;;;;;;;6489122;31;8869;-58
2023/09/18 10:03:29;;;;;;;;;19.75;16.25;;;;;;;;6488686;31;9011;-59
2023/09/18 10:09:35;;;;;;;;;18.25;15.75;;;;;;;;6491253;39;8931;-58
2023/09/18 10:15:39;;;;;;;;;14.00;14.00;;;;;;;;6491085;31;8918;-58
2023/09/18 10:22:10;;;;;;;;;14.50;14.50;;;;;;;;6491173;39;8861;-58
2023/09/18 10:28:15;;;;;;;;;16.00;15.00;;;;;;;;6309803;46;10000797;-59
2023/09/18 10:34:19;;;;;;;;;17.00;17.00;;;;;;;;6489651;46;9024;-64
2023/09/18 10:40:26;;;;;;;;;14.00;13.00;;;;;;;;6488828;46;8905;-64
2023/09/18 10:46:30;;;;;;;;;14.00;13.00;;;;;;;;6489290;46;8872;-62
2023/09/18 10:52:43;;;;;;;;;13.75;12.75;;;;;;;;6488523;46;8962;-64
2023/09/18 10:58:55;;;;;;;;;20.50;19.50;;;;;;;;6488126;31;8939;-64
2023/09/18 11:04:59;;;;;;;;;13.50;13.25;;;;;;;;6488202;46;8956;-62
2023/09/18 11:11:11;;;;;;;;;20.00;19.75;;;;;;;;6489860;31;8919;-62
2023/09/18 11:17:40;;;;;;;;;15.00;12.25;;;;;;;;6488875;39;8889;-64
2023/09/18 11:23:46;;;;;;;;;17.25;16.00;;;;;;;;6489552;39;8938;-67
2023/09/18 11:29:56;;;;;;;;;17.75;16.00;;;;;;;;6488241;39;8834;-64
2023/09/18 11:36:29;;;;;;;;;19.50;19.00;;;;;;;;6487355;46;8993;-62
2023/09/18 11:42:34;;;;;;;;;18.25;14.25;;;;;;;;6490141;46;8849;-63
2023/09/18 11:48:41;;;;;;;;;16.00;16.00;;;;;;;;6488702;39;8856;-63
2023/09/18 11:54:46;;;;;;;;;17.50;17.25;;;;;;;;6489508;46;8961;-64
2023/09/18 12:00:50;;;;;;;;;15.25;14.50;;;;;;;;6488350;31;8958;-61
2023/09/18 12:06:54;;;;;;;;;12.50;11.75;;;;;;;;6485929;46;8883;-64
2023/09/18 12:12:57;;;;;;;;;22.50;22.50;;;;;;;;6487013;39;8924;-62
2023/09/18 12:19:06;;;;;;;;;13.75;13.00;;;;;;;;6487538;31;8863;-63
2023/09/18 12:25:14;;;;;;;;;16.75;16.75;;;;;;;;6486964;46;9439;-62
2023/09/18 12:31:19;;;;;;;;;18.00;14.25;;;;;;;;6487574;39;8851;-63
2023/09/18 12:37:25;;;;;;;;;18.00;17.25;;;;;;;;6488307;39;8984;-62
2023/09/18 12:43:30;;;;;;;;;17.33;16.67;;;;;;;;6486624;39;9014;-62
2023/09/18 12:49:34;;;;;;;;;18.00;17.75;;;;;;;;6487070;46;8995;-63
2023/09/18 12:55:37;;;;;;;;;18.00;16.75;;;;;;;;6488525;39;8915;-65
2023/09/18 13:01:48;;;;;;;;;18.00;17.75;;;;;;;;6487052;39;8940;-64
2023/09/18 13:07:50;;;;;;;;;19.00;16.00;;;;;;;;6485965;46;8882;-63
2023/09/18 13:13:58;;;;;;;;;19.00;18.25;;;;;;;;6487895;39;8983;-64
2023/09/18 13:20:24;;;;;;;;;10.75;9.75;;;;;;;;6488800;39;9514;-62
2023/09/18 13:26:29;;;;;;;;;20.25;19.00;;;;;;;;6487470;46;8861;-64
2023/09/18 13:32:33;;;;;;;;;16.50;15.75;;;;;;;;6485225;39;8899;-64
2023/09/18 13:38:38;;;;;;;;;21.00;17.50;;;;;;;;6485863;39;8876;-64
2023/09/18 13:44:41;;;;;;;;;17.75;17.75;;;;;;;;6487256;31;8887;-65
2023/09/18 13:50:45;;;;;;;;;16.50;15.50;;;;;;;;6487555;47;8872;-63
2023/09/18 13:56:49;;;;;;;;;15.00;15.00;;;;;;;;6488731;47;8955;-63
2023/09/18 14:02:52;;;;;;;;;17.50;16.00;;;;;;;;6487440;47;8905;-63
2023/09/18 14:08:54;;;;;;;;;16.75;15.50;;;;;;;;6487889;47;8887;-64
2023/09/18 14:14:58;;;;;;;;;16.50;15.25;;;;;;;;6484542;31;8947;-62
2023/09/18 14:21:01;;;;;;;;;18.25;17.50;;;;;;;;6486803;39;8934;-63
2023/09/18 14:27:05;;;;;;;;;20.00;19.25;;;;;;;;6488608;39;8892;-63
2023/09/18 14:33:08;;;;;;;;;16.50;15.50;;;;;;;;6487845;31;8998;-64
2023/09/18 14:39:12;;;;;;;;;17.00;16.00;;;;;;;;6487474;46;8844;-63
2023/09/18 14:45:16;;;;;;;;;14.50;14.00;;;;;;;;6487816;39;8938;-62
2023/09/18 14:51:22;;;;;;;;;21.75;21.75;;;;;;;;6489116;39;9489;-62
2023/09/18 14:57:28;;;;;;;;;16.75;16.25;;;;;;;;6490574;39;8915;-63
2023/09/18 15:03:31;;;;;;;;;22.00;19.75;;;;;;;;6489586;39;8943;-62
2023/09/18 15:09:33;;;;;;;;;19.75;18.75;;;;;;;;6487097;31;8864;-62
2023/09/18 15:15:39;;;;;;;;;19.75;18.50;;;;;;;;6488301;39;8904;-61
2023/09/18 15:21:44;;;;;;;;;17.00;15.00;;;;;;;;6487958;39;8875;-63
2023/09/18 15:27:46;;;;;;;;;14.00;14.00;;;;;;;;6488798;39;9269;-64
2023/09/18 15:33:54;;;;;;;;;16.75;16.25;;;;;;;;6489263;39;9058;-58
2023/09/18 15:39:57;;;;;;;;;20.75;20.75;;;;;;;;6487309;46;8852;-60
2023/09/18 15:46:08;;;;;;;;;20.75;17.00;;;;;;;;6486514;39;8867;-56
2023/09/18 15:52:12;;;;;;;;;17.00;17.00;;;;;;;;6488950;39;8849;-58
2023/09/18 15:58:17;;;;;;;;;24.00;23.50;;;;;;;;6488649;46;9042;-56
2023/09/18 16:04:20;;;;;;;;;38.67;33.00;;;;;;;;6487289;39;8840;-58
2023/09/18 16:10:23;;;;;;;;;30.00;28.25;;;;;;;;6488844;39;8860;-58
2023/09/18 16:16:25;;;;;;;;;22.00;19.50;;;;;;;;6487123;39;8908;-59
2023/09/18 16:22:28;;;;;;;;;25.00;25.00;;;;;;;;6488462;39;8843;-57
2023/09/18 16:28:31;;;;;;;;;19.25;18.25;;;;;;;;6488967;39;8930;-57
2023/09/18 16:34:34;;;;;;;;;21.25;20.50;;;;;;;;6488780;39;8929;-57
2023/09/18 16:40:36;;;;;;;;;25.33;24.00;;;;;;;;6488165;31;8922;-56
2023/09/18 16:46:40;;;;;;;;;26.33;24.00;;;;;;;;6487416;39;8940;-57
2023/09/18 16:52:45;;;;;;;;;27.00;25.00;;;;;;;;6489710;39;8920;-57
2023/09/18 16:58:48;;;;;;;;;23.50;22.75;;;;;;;;6489605;39;8931;-57
2023/09/18 17:04:50;;;;;;;;;21.00;21.00;;;;;;;;6487467;31;8861;-56
2023/09/18 17:10:54;;;;;;;;;21.25;20.75;;;;;;;;6488719;39;8994;-57
2023/09/18 17:16:56;;;;;;;;;21.75;21.00;;;;;;;;6487936;39;8917;-58
2023/09/18 17:22:59;;;;;;;;;22.33;20.00;;;;;;;;6488986;39;8856;-57
2023/09/18 17:29:03;;;;;;;;;25.33;21.00;;;;;;;;6488527;39;9015;-58
2023/09/18 17:35:05;;;;;;;;;47.33;37.00;;;;;;;;6488086;39;8955;-57
2023/09/18 17:41:08;;;;;;;;;46.00;38.33;;;;;;;;6489043;39;8926;-58
2023/09/18 17:47:11;;;;;;;;;38.67;32.67;;;;;;;;5747085;36;10010853;-58
2023/09/18 17:53:23;;;;;;;;;32.33;30.00;;;;;;;;6522363;36;8951;-57
2023/09/18 17:59:28;;;;;;;;;23.00;23.00;;;;;;;;6487520;39;8960;-58
2023/09/18 18:05:31;;;;;;;;;28.33;23.33;;;;;;;;6488370;39;8906;-58
2023/09/18 18:11:34;;;;;;;;;26.67;23.33;;;;;;;;6488756;39;8881;-57
2023/09/18 18:17:38;;;;;;;;;24.00;18.67;;;;;;;;6487804;39;8875;-56
2023/09/18 18:23:41;;;;;;;;;22.33;20.33;;;;;;;;6487982;39;8892;-56
2023/09/18 18:29:45;;;;;;;;;24.00;22.67;;;;;;;;6489395;39;8863;-59
2023/09/18 18:35:48;;;;;;;;;23.33;23.00;;;;;;;;6490008;39;8945;-56
2023/09/18 18:41:50;;;;;;;;;20.67;20.67;;;;;;;;6309370;46;10000488;-57
2023/09/18 18:47:57;;;;;;;;;21.67;21.67;;;;;;;;6489281;46;8947;-56
2023/09/18 18:54:03;;;;;;;;;23.33;20.33;;;;;;;;6490700;39;9005;-56
2023/09/18 19:00:10;;;;;;;;;20.67;19.00;;;;;;;;6490013;39;8981;-57
2023/09/18 19:06:13;;;;;;;;;21.00;21.00;;;;;;;;6489389;46;8895;-57
2023/09/18 19:12:17;;;;;;;;;18.33;18.33;;;;;;;;6489732;39;8886;-56
2023/09/18 19:18:20;;;;;;;;;22.00;18.00;;;;;;;;6487055;39;9009;-57
2023/09/18 19:24:22;;;;;;;;;17.00;17.00;;;;;;;;6488591;39;8897;-57
2023/09/18 19:30:24;;;;;;;;;18.33;17.67;;;;;;;;6488624;31;8938;-56
2023/09/18 19:36:27;;;;;;;;;18.67;18.33;;;;;;;;6488878;39;8913;-55
2023/09/18 19:42:31;;;;;;;;;19.33;19.33;;;;;;;;6489303;39;8903;-59
2023/09/18 19:48:33;;;;;;;;;19.00;19.00;;;;;;;;6489680;39;9616;-58
2023/09/18 19:54:36;;;;;;;;;17.67;16.67;;;;;;;;6488770;39;8883;-56
2023/09/18 20:00:38;;;;;;;;;21.00;20.00;;;;;;;;6488263;39;8953;-57
2023/09/18 20:06:41;;;;;;;;;20.67;20.67;;;;;;;;6489596;39;8887;-55
2023/09/18 20:12:48;;;;;;;;;20.00;19.00;;;;;;;;6489170;31;8937;-57
2023/09/18 20:18:52;;;;;;;;;19.67;18.00;;;;;;;;6487117;46;8943;-55
2023/09/18 20:24:55;;;;;;;;;19.33;17.33;;;;;;;;6488489;31;8971;-58
2023/09/18 20:30:57;;;;;;;;;20.67;17.33;;;;;;;;6488373;31;8883;-57
2023/09/18 20:37:00;;;;;;;;;19.00;17.00;;;;;;;;6489187;39;8873;-55
2023/09/18 20:43:04;;;;;;;;;11.67;11.67;;;;;;;;6488107;31;8915;-56
2023/09/18 20:49:06;;;;;;;;;19.00;18.33;;;;;;;;6505919;31;8886;-53
2023/09/18 20:55:10;;;;;;;;;17.00;17.00;;;;;;;;6487087;39;8987;-57
2023/09/18 21:01:13;;;;;;;;;19.00;18.00;;;;;;;;6488261;39;8855;-56
2023/09/18 21:07:16;;;;;;;;;18.00;18.00;;;;;;;;6488844;46;8868;-57
2023/09/18 21:13:19;;;;;;;;;17.33;17.33;;;;;;;;6488808;39;8906;-54
2023/09/18 21:19:21;;;;;;;;;20.33;18.33;;;;;;;;6488186;46;8888;-54
2023/09/18 21:25:23;;;;;;;;;22.00;21.00;;;;;;;;6488406;39;8897;-56
2023/09/18 21:31:26;;;;;;;;;19.00;14.00;;;;;;;;6487199;31;8881;-57
2023/09/18 21:37:28;;;;;;;;;19.33;19.33;;;;;;;;6488311;39;9022;-55
2023/09/18 21:43:32;;;;;;;;;18.00;17.67;;;;;;;;6487147;39;9604;-55
2023/09/18 21:49:39;;;;;;;;;16.00;16.00;;;;;;;;6488349;39;8843;-55
2023/09/18 21:55:44;;;;;;;;;17.67;16.33;;;;;;;;6488319;47;9027;-55
2023/09/18 22:01:47;;;;;;;;;19.33;18.67;;;;;;;;6489485;39;9558;-52
2023/09/18 22:07:49;;;;;;;;;19.67;17.00;;;;;;;;6490001;46;9064;-55
2023/09/18 22:13:53;;;;;;;;;20.00;19.33;;;;;;;;6488078;39;8938;-56
2023/09/18 22:19:55;;;;;;;;;16.67;15.67;;;;;;;;6488772;39;8884;-55
2023/09/18 22:25:58;;;;;;;;;17.00;17.00;;;;;;;;6489557;39;8914;-55
2023/09/18 22:32:01;;;;;;;;;14.33;13.67;;;;;;;;6488312;39;8892;-56
2023/09/18 22:38:14;;;;;;;;;18.00;17.33;;;;;;;;6490199;39;8915;-55
2023/09/18 22:44:54;;;;;;;;;18.33;17.33;;;;;;;;6489429;46;8888;-55
2023/09/18 22:51:35;;;;;;;;;15.67;15.67;;;;;;;;6489798;46;8962;-55
2023/09/18 22:57:45;;;;;;;;;13.67;13.67;;;;;;;;6489190;31;9018;-56
2023/09/18 23:03:48;;;;;;;;;14.67;13.33;;;;;;;;6489859;31;8969;-57
2023/09/18 23:09:53;;;;;;;;;15.67;15.67;;;;;;;;6488331;46;8935;-56
2023/09/18 23:15:55;;;;;;;;;17.33;13.33;;;;;;;;6488702;39;8883;-57
2023/09/18 23:21:59;;;;;;;;;15.33;15.33;;;;;;;;6489480;39;8966;-56
2023/09/18 23:28:03;;;;;;;;;20.33;18.00;;;;;;;;6489878;39;8961;-57
2023/09/18 23:34:05;;;;;;;;;20.67;18.00;;;;;;;;6490048;39;8975;-57
2023/09/18 23:40:14;;;;;;;;;18.33;18.00;;;;;;;;6490322;31;9475;-57
2023/09/18 23:46:20;;;;;;;;;14.33;12.33;;;;;;;;6489316;31;8891;-55
2023/09/18 23:52:24;;;;;;;;;17.50;16.50;;;;;;;;6488636;39;8895;-57
2023/09/18 23:58:29;;;;;;;;;19.00;17.00;;;;;;;;6488107;39;8972;-56
